Terminal Aerodrome Forecast
Issued by NWS Twin Cities, MN

Home | Current Version | Previous Version | Graphics & Text | Print | Product List | Glossary On
Versions: 1 2 3 4 5 6 7 8 9 10 11 12 13 14 15 16 17 18 19 20 21 22 23 24 25 26 27 28 29 30 31 32 33 34 35
000
FTUS43 KMPX 290520
TAFMSP
TAF
KMSP 290520Z 2906/3012 24003KT 6SM BR FEW060 SCT100
     FM291000 32005KT P6SM FEW100
     FM291500 32010KT P6SM SCT050
     FM291900 32010G16KT P6SM -SHRA VCTS BKN050CB OVC200
     FM300000 31008KT P6SM VCSH BKN060 OVC250
     FM300300 34007KT P6SM SKC=

USA.gov is the U.S. government's official web portal to all federal, state and local government web resources and services.